Time;durP1;ratioP1;P1;durP2;ratioP2;P2;SDS_P1;SDS_P2;PMS_P1;PMS_P2;Temp;Humidity;BMP_temperature;BMP_pressure;BME280_temperature;BME280_humidity;BME280_pressure;Samples;Min_cycle;Max_cycle;Signal;HPM_P1;HPM_P2
2023/09/09 00:01:29;;;;;;;34.17;31.25;;;;;;;;;;4881355;29;20045;-82
2023/09/09 00:03:56;;;;;;;30.05;27.52;;;;;;;;;;4865730;29;20044;-83
2023/09/09 00:06:22;;;;;;;35.10;32.25;;;;;;;;;;4881457;29;20140;-82
2023/09/09 00:08:48;;;;;;;31.55;29.05;;;;;;;;;;4881587;29;20053;-83
2023/09/09 00:11:14;;;;;;;33.17;30.40;;;;;;;;;;4882463;29;20083;-83
2023/09/09 00:13:41;;;;;;;34.28;31.48;;;;;;;;;;4866008;29;20095;-83
2023/09/09 00:16:07;;;;;;;30.00;27.55;;;;;;;;;;4881357;29;20098;-83
2023/09/09 00:18:33;;;;;;;33.72;30.85;;;;;;;;;;4865052;29;20056;-83
2023/09/09 00:21:00;;;;;;;32.85;30.20;;;;;;;;;;4880896;29;20474;-82
2023/09/09 00:23:26;;;;;;;31.33;28.80;;;;;;;;;;4880988;29;20132;-83
2023/09/09 00:25:52;;;;;;;29.20;26.85;;;;;;;;;;4881563;29;20053;-83
2023/09/09 00:28:20;;;;;;;33.88;31.00;;;;;;;;;;4880935;29;20052;-83
2023/09/09 00:30:46;;;;;;;33.88;30.85;;;;;;;;;;4882288;29;20056;-83
2023/09/09 00:33:12;;;;;;;33.33;30.60;;;;;;;;;;4866640;29;20045;-82
2023/09/09 00:35:39;;;;;;;32.40;29.70;;;;;;;;;;4880924;29;20053;-82
2023/09/09 00:38:07;;;;;;;36.63;33.42;;;;;;;;;;4881587;29;20064;-82
2023/09/09 00:40:33;;;;;;;37.15;33.92;;;;;;;;;;4882054;29;20057;-83
2023/09/09 00:42:59;;;;;;;33.03;30.33;;;;;;;;;;4880535;29;20052;-82
2023/09/09 00:45:27;;;;;;;32.55;29.80;;;;;;;;;;4864546;29;20056;-82
2023/09/09 00:47:53;;;;;;;32.22;29.30;;;;;;;;;;4865567;29;20048;-83
2023/09/09 00:50:20;;;;;;;32.90;30.20;;;;;;;;;;4880728;29;20447;-81
2023/09/09 00:52:49;;;;;;;31.50;28.95;;;;;;;;;;4881439;29;20057;-82
2023/09/09 00:55:15;;;;;;;33.38;30.52;;;;;;;;;;4880575;29;20053;-82
2023/09/09 00:57:41;;;;;;;26.73;24.63;;;;;;;;;;4880204;29;20144;-82
2023/09/09 01:00:11;;;;;;;29.25;26.73;;;;;;;;;;4865494;29;20483;-83
2023/09/09 01:02:37;;;;;;;27.35;25.05;;;;;;;;;;4879797;29;20045;-82
2023/09/09 01:05:04;;;;;;;30.50;28.00;;;;;;;;;;4880113;29;20482;-83
2023/09/09 01:07:42;;;;;;;28.92;26.55;;;;;;;;;;4880458;29;20052;-82
2023/09/09 01:10:08;;;;;;;31.63;28.92;;;;;;;;;;4879847;29;20475;-83
2023/09/09 01:12:34;;;;;;;29.92;27.45;;;;;;;;;;4865027;29;20076;-83
2023/09/09 01:15:00;;;;;;;29.83;27.48;;;;;;;;;;4880560;29;20136;-83
2023/09/09 01:17:26;;;;;;;30.13;27.60;;;;;;;;;;4879635;29;20060;-83
2023/09/09 01:19:54;;;;;;;31.70;28.95;;;;;;;;;;4880411;29;20108;-83
2023/09/09 01:22:20;;;;;;;32.10;29.50;;;;;;;;;;4880342;29;20139;-83
2023/09/09 01:24:46;;;;;;;33.33;30.33;;;;;;;;;;4879974;29;20049;-83
2023/09/09 01:27:14;;;;;;;30.45;27.90;;;;;;;;;;4880679;29;20049;-83
2023/09/09 01:29:40;;;;;;;32.78;30.08;;;;;;;;;;4864882;29;20100;-82
2023/09/09 01:32:06;;;;;;;28.67;26.17;;;;;;;;;;4879479;29;20088;-82
2023/09/09 01:34:32;;;;;;;29.40;26.90;;;;;;;;;;4864698;29;20397;-81
2023/09/09 01:36:58;;;;;;;34.40;31.60;;;;;;;;;;4865220;29;20045;-82
2023/09/09 01:39:25;;;;;;;36.40;33.25;;;;;;;;;;4880014;29;20060;-81
2023/09/09 01:41:51;;;;;;;31.60;28.90;;;;;;;;;;4879709;29;20143;-82
2023/09/09 01:44:17;;;;;;;30.52;27.77;;;;;;;;;;4864222;29;20056;-82
2023/09/09 01:46:43;;;;;;;29.92;27.45;;;;;;;;;;4864684;29;20108;-83
2023/09/09 01:49:09;;;;;;;31.77;29.08;;;;;;;;;;4895212;29;20057;-82
2023/09/09 01:51:35;;;;;;;36.78;33.53;;;;;;;;;;4864339;29;20399;-83
2023/09/09 01:54:02;;;;;;;32.35;29.75;;;;;;;;;;4864662;29;20048;-83
2023/09/09 01:56:28;;;;;;;32.13;29.50;;;;;;;;;;4879914;29;20056;-84
2023/09/09 01:58:57;;;;;;;35.67;32.67;;;;;;;;;;4879860;29;20044;-84
2023/09/09 02:01:23;;;;;;;35.97;32.88;;;;;;;;;;4880198;29;20131;-84
2023/09/09 02:03:49;;;;;;;31.73;29.15;;;;;;;;;;4864692;29;20049;-84
2023/09/09 02:06:17;;;;;;;34.70;31.80;;;;;;;;;;4879923;29;20055;-84
2023/09/09 02:08:43;;;;;;;35.72;32.70;;;;;;;;;;4880159;29;20053;-83
2023/09/09 02:11:09;;;;;;;35.63;32.38;;;;;;;;;;4879828;29;20451;-82
2023/09/09 02:13:35;;;;;;;38.22;34.95;;;;;;;;;;4879375;29;20140;-83
2023/09/09 02:16:05;;;;;;;40.00;36.67;;;;;;;;;;4880078;29;20056;-83
2023/09/09 02:18:31;;;;;;;42.85;38.88;;;;;;;;;;4880344;29;20383;-82
2023/09/09 02:20:57;;;;;;;39.67;36.42;;;;;;;;;;4866824;29;20060;-83
2023/09/09 02:23:24;;;;;;;38.97;35.58;;;;;;;;;;4883316;29;20049;-82
2023/09/09 02:25:50;;;;;;;39.15;35.58;;;;;;;;;;4867581;29;20072;-82
2023/09/09 02:28:17;;;;;;;40.15;36.67;;;;;;;;;;4883417;29;20049;-82
2023/09/09 02:30:44;;;;;;;42.65;38.85;;;;;;;;;;4883388;29;20056;-83
2023/09/09 02:33:10;;;;;;;40.58;36.97;;;;;;;;;;4868431;29;20140;-82
2023/09/09 02:35:41;;;;;;;40.05;36.67;;;;;;;;;;4867587;29;20105;-82
2023/09/09 02:38:07;;;;;;;39.83;36.35;;;;;;;;;;4882807;29;20419;-82
2023/09/09 02:40:33;;;;;;;41.90;38.15;;;;;;;;;;4883026;29;20053;-82
2023/09/09 02:42:59;;;;;;;39.83;36.30;;;;;;;;;;4882642;29;20049;-82
2023/09/09 02:45:26;;;;;;;37.92;34.72;;;;;;;;;;4883394;29;20057;-82
2023/09/09 02:47:52;;;;;;;39.45;36.17;;;;;;;;;;4883062;29;20053;-82
2023/09/09 02:50:18;;;;;;;41.75;38.28;;;;;;;;;;4883009;29;20398;-82
2023/09/09 02:52:44;;;;;;;36.33;33.33;;;;;;;;;;4852278;29;20041;-82
2023/09/09 02:55:10;;;;;;;40.85;37.25;;;;;;;;;;4867028;29;20064;-82
2023/09/09 02:57:36;;;;;;;40.45;36.95;;;;;;;;;;4882916;29;20049;-82
2023/09/09 03:00:05;;;;;;;38.47;35.38;;;;;;;;;;4882377;29;20049;-82
2023/09/09 03:02:32;;;;;;;39.38;35.97;;;;;;;;;;4882851;29;20418;-83
2023/09/09 03:04:58;;;;;;;38.65;35.17;;;;;;;;;;4883488;29;20399;-82
2023/09/09 03:07:24;;;;;;;37.17;33.88;;;;;;;;;;4883396;29;20129;-83
2023/09/09 03:09:50;;;;;;;37.83;34.67;;;;;;;;;;4883296;29;20064;-82
2023/09/09 03:12:20;;;;;;;39.85;36.55;;;;;;;;;;4883226;29;20081;-82
2023/09/09 03:14:50;;;;;;;38.17;34.88;;;;;;;;;;4868476;29;20526;-83
2023/09/09 03:17:17;;;;;;;36.35;33.33;;;;;;;;;;4866739;29;20116;-83
2023/09/09 03:19:43;;;;;;;42.13;38.40;;;;;;;;;;4883372;29;20053;-83
2023/09/09 03:22:09;;;;;;;38.95;35.65;;;;;;;;;;4867637;29;20052;-83
2023/09/09 03:24:35;;;;;;;36.65;33.60;;;;;;;;;;4882202;29;20048;-83
2023/09/09 03:27:01;;;;;;;34.92;31.77;;;;;;;;;;4882483;29;20088;-83
2023/09/09 03:29:28;;;;;;;40.15;36.60;;;;;;;;;;4882301;29;20052;-83
2023/09/09 03:31:54;;;;;;;35.70;32.78;;;;;;;;;;4866418;29;20056;-83
2023/09/09 03:34:20;;;;;;;37.05;33.88;;;;;;;;;;4881764;29;20101;-83
2023/09/09 03:36:46;;;;;;;34.53;31.58;;;;;;;;;;4881675;29;20475;-82
2023/09/09 03:39:12;;;;;;;38.08;34.72;;;;;;;;;;4883143;29;20138;-82
2023/09/09 03:41:41;;;;;;;38.97;35.67;;;;;;;;;;4867369;29;20057;-83
2023/09/09 03:44:07;;;;;;;54.58;49.00;;;;;;;;;;4883130;29;20052;-82
2023/09/09 03:46:33;;;;;;;38.33;35.22;;;;;;;;;;4865934;29;20160;-82
2023/09/09 03:49:00;;;;;;;41.42;37.95;;;;;;;;;;4881702;29;20149;-82
2023/09/09 03:51:26;;;;;;;37.67;34.58;;;;;;;;;;4866397;29;20047;-83
2023/09/09 03:53:52;;;;;;;40.13;36.63;;;;;;;;;;4881814;29;20090;-83
2023/09/09 03:56:18;;;;;;;49.58;45.10;;;;;;;;;;4866403;29;20509;-83
2023/09/09 03:58:44;;;;;;;42.95;39.15;;;;;;;;;;4881360;29;20494;-83
2023/09/09 04:01:12;;;;;;;40.60;37.10;;;;;;;;;;4881603;29;20057;-83
2023/09/09 04:03:39;;;;;;;40.05;36.90;;;;;;;;;;4865839;29;20498;-83
2023/09/09 04:06:06;;;;;;;43.72;40.20;;;;;;;;;;4881525;29;20082;-83
2023/09/09 04:08:33;;;;;;;39.10;35.80;;;;;;;;;;4881211;29;20091;-83
2023/09/09 04:10:59;;;;;;;42.25;38.45;;;;;;;;;;4881569;29;20057;-83
2023/09/09 04:13:25;;;;;;;41.60;38.05;;;;;;;;;;4881336;29;20083;-83
2023/09/09 04:15:56;;;;;;;39.95;36.45;;;;;;;;;;4881383;29;20053;-84
2023/09/09 04:18:22;;;;;;;38.33;35.05;;;;;;;;;;4866062;29;20088;-83
2023/09/09 04:20:49;;;;;;;36.88;33.97;;;;;;;;;;4881700;29;20049;-83
2023/09/09 04:23:15;;;;;;;43.03;39.40;;;;;;;;;;4880997;29;20045;-83
2023/09/09 04:25:41;;;;;;;35.95;33.05;;;;;;;;;;4880950;29;20093;-83
2023/09/09 04:28:10;;;;;;;33.65;30.92;;;;;;;;;;4881444;29;20101;-84
2023/09/09 04:30:38;;;;;;;34.60;31.80;;;;;;;;;;4881482;29;20359;-83
2023/09/09 04:33:13;;;;;;;35.42;32.53;;;;;;;;;;4880745;29;20064;-83
2023/09/09 04:35:40;;;;;;;32.33;29.70;;;;;;;;;;4880626;29;20052;-83
2023/09/09 04:38:06;;;;;;;31.08;28.42;;;;;;;;;;4881623;29;20468;-83
2023/09/09 04:40:32;;;;;;;31.08;28.60;;;;;;;;;;4881090;29;20053;-83
2023/09/09 04:42:58;;;;;;;32.45;30.02;;;;;;;;;;4880236;29;20053;-83
2023/09/09 04:45:24;;;;;;;36.17;33.20;;;;;;;;;;4880324;29;20510;-83
2023/09/09 04:47:51;;;;;;;36.35;33.17;;;;;;;;;;4881075;29;20061;-83
2023/09/09 04:50:18;;;;;;;32.38;29.52;;;;;;;;;;4865304;29;20140;-83
2023/09/09 04:52:44;;;;;;;30.13;27.52;;;;;;;;;;4881566;29;20435;-83
2023/09/09 04:55:10;;;;;;;32.20;29.60;;;;;;;;;;4881645;29;20182;-83
2023/09/09 04:57:36;;;;;;;30.55;28.05;;;;;;;;;;4865174;29;20053;-83
2023/09/09 05:00:06;;;;;;;28.63;26.25;;;;;;;;;;4865038;29;20053;-83
2023/09/09 05:02:33;;;;;;;30.38;27.85;;;;;;;;;;4880401;29;20486;-83
2023/09/09 05:04:59;;;;;;;28.80;26.60;;;;;;;;;;4865562;29;20057;-83
2023/09/09 05:07:25;;;;;;;28.48;26.05;;;;;;;;;;4880873;29;20501;-83
2023/09/09 05:09:51;;;;;;;29.00;26.58;;;;;;;;;;4880761;29;20084;-82
2023/09/09 05:12:18;;;;;;;32.05;29.35;;;;;;;;;;4881014;29;20053;-82
2023/09/09 05:14:44;;;;;;;28.30;26.13;;;;;;;;;;4881335;29;20049;-83
2023/09/09 05:17:10;;;;;;;27.35;25.35;;;;;;;;;;4880333;29;20061;-82
2023/09/09 05:19:36;;;;;;;29.83;27.55;;;;;;;;;;4880108;29;20098;-83
2023/09/09 05:22:02;;;;;;;32.35;29.80;;;;;;;;;;4879715;29;20102;-83
2023/09/09 05:24:28;;;;;;;28.33;26.15;;;;;;;;;;4879893;29;20048;-83
2023/09/09 05:26:54;;;;;;;28.73;26.55;;;;;;;;;;4864854;29;20092;-83
2023/09/09 05:29:20;;;;;;;26.55;24.42;;;;;;;;;;4879876;29;20490;-83
2023/09/09 05:31:47;;;;;;;24.50;22.63;;;;;;;;;;4880020;29;20103;-82
2023/09/09 05:34:13;;;;;;;24.42;22.50;;;;;;;;;;4881135;29;20070;-83
2023/09/09 05:36:39;;;;;;;29.38;26.98;;;;;;;;;;4849436;29;20057;-83
2023/09/09 05:39:05;;;;;;;28.25;26.15;;;;;;;;;;4864815;29;20579;-82
2023/09/09 05:41:31;;;;;;;38.60;35.42;;;;;;;;;;4879438;29;20129;-83
2023/09/09 05:43:57;;;;;;;35.95;32.75;;;;;;;;;;4879876;29;20474;-83
2023/09/09 05:46:23;;;;;;;41.20;37.28;;;;;;;;;;4879389;29;20053;-82
2023/09/09 05:48:49;;;;;;;34.35;31.58;;;;;;;;;;4879907;29;20057;-83
2023/09/09 05:51:16;;;;;;;34.53;31.63;;;;;;;;;;4880044;29;20049;-83
2023/09/09 05:53:42;;;;;;;33.67;30.85;;;;;;;;;;4879576;29;20087;-83
2023/09/09 05:56:08;;;;;;;34.97;32.03;;;;;;;;;;4867966;29;20045;-83
2023/09/09 05:58:35;;;;;;;36.15;33.25;;;;;;;;;;4883674;29;20116;-83
2023/09/09 06:01:01;;;;;;;36.05;32.95;;;;;;;;;;4883914;29;20053;-83
2023/09/09 06:03:27;;;;;;;40.70;37.10;;;;;;;;;;4883050;29;20041;-83
2023/09/09 06:05:54;;;;;;;38.25;35.13;;;;;;;;;;4883331;29;20060;-82
2023/09/09 06:08:20;;;;;;;41.67;38.40;;;;;;;;;;4884549;29;20117;-83
2023/09/09 06:10:46;;;;;;;41.03;37.38;;;;;;;;;;4883957;29;20056;-83
2023/09/09 06:13:12;;;;;;;38.70;35.50;;;;;;;;;;4883660;29;20057;-83
2023/09/09 06:15:39;;;;;;;56.17;50.92;;;;;;;;;;4883253;29;20516;-83
2023/09/09 06:18:05;;;;;;;46.78;42.97;;;;;;;;;;4867854;29;20466;-83
2023/09/09 06:20:31;;;;;;;48.45;44.20;;;;;;;;;;4883247;29;20053;-83
2023/09/09 06:22:57;;;;;;;48.30;44.03;;;;;;;;;;4883187;29;20056;-83
2023/09/09 06:25:23;;;;;;;50.78;46.47;;;;;;;;;;4867018;29;20405;-83
2023/09/09 06:27:49;;;;;;;48.28;44.05;;;;;;;;;;4867599;29;20494;-83
2023/09/09 06:30:15;;;;;;;51.22;46.60;;;;;;;;;;4884674;29;20140;-84
2023/09/09 06:32:41;;;;;;;49.38;44.97;;;;;;;;;;4883021;29;20061;-83
2023/09/09 06:35:07;;;;;;;48.40;44.17;;;;;;;;;;4868397;29;20045;-83
2023/09/09 06:37:33;;;;;;;49.08;44.65;;;;;;;;;;4883203;29;20092;-83
2023/09/09 06:40:00;;;;;;;47.55;43.47;;;;;;;;;;4883243;29;20049;-83
2023/09/09 06:42:26;;;;;;;47.92;43.50;;;;;;;;;;4867551;29;20065;-84
2023/09/09 06:44:52;;;;;;;47.85;43.47;;;;;;;;;;4867053;29;20053;-84
2023/09/09 06:47:18;;;;;;;45.75;41.53;;;;;;;;;;4881965;29;20450;-83
2023/09/09 06:49:44;;;;;;;44.75;40.80;;;;;;;;;;4882909;29;20108;-83
2023/09/09 06:52:10;;;;;;;45.40;41.33;;;;;;;;;;4883891;29;20390;-83
2023/09/09 06:54:36;;;;;;;44.22;40.25;;;;;;;;;;4882981;29;20048;-84
2023/09/09 06:57:02;;;;;;;43.38;39.38;;;;;;;;;;4883596;29;20542;-84
2023/09/09 06:59:29;;;;;;;45.40;41.50;;;;;;;;;;4883958;29;20045;-84
2023/09/09 07:01:55;;;;;;;43.55;39.72;;;;;;;;;;4867468;29;20128;-84
2023/09/09 07:04:21;;;;;;;42.90;39.13;;;;;;;;;;4883732;29;20418;-84
2023/09/09 07:06:47;;;;;;;41.72;38.10;;;;;;;;;;4882045;29;20101;-84
2023/09/09 07:09:13;;;;;;;41.80;38.13;;;;;;;;;;4882588;29;20465;-85
2023/09/09 07:11:41;;;;;;;40.60;37.05;;;;;;;;;;4882898;29;20049;-84
2023/09/09 07:14:07;;;;;;;39.53;36.13;;;;;;;;;;4882974;29;20504;-84
2023/09/09 07:16:34;;;;;;;40.80;37.10;;;;;;;;;;4882706;29;20049;-85
2023/09/09 07:19:00;;;;;;;41.80;37.65;;;;;;;;;;4882777;29;20115;-84
2023/09/09 07:21:26;;;;;;;40.13;36.65;;;;;;;;;;4882703;29;20045;-85
2023/09/09 07:23:53;;;;;;;38.92;35.60;;;;;;;;;;4866839;29;20084;-84
2023/09/09 07:26:19;;;;;;;37.97;34.85;;;;;;;;;;4882681;29;20499;-85
2023/09/09 07:28:45;;;;;;;37.78;34.53;;;;;;;;;;4882518;29;20049;-85
2023/09/09 07:31:12;;;;;;;39.95;36.60;;;;;;;;;;4882204;29;20157;-85
2023/09/09 07:33:38;;;;;;;38.65;35.25;;;;;;;;;;4866627;29;20049;-85
2023/09/09 07:36:04;;;;;;;38.17;34.78;;;;;;;;;;4866732;29;20047;-85
2023/09/09 07:38:30;;;;;;;40.75;37.15;;;;;;;;;;4883166;29;20132;-85
2023/09/09 07:40:57;;;;;;;39.72;36.40;;;;;;;;;;4882309;29;20051;-85
2023/09/09 07:43:23;;;;;;;38.88;35.40;;;;;;;;;;4881936;29;20057;-85
2023/09/09 07:45:51;;;;;;;42.75;38.83;;;;;;;;;;4883588;29;20136;-85
2023/09/09 07:48:17;;;;;;;43.63;39.47;;;;;;;;;;4866053;29;20072;-85
2023/09/09 07:50:50;;;;;;;44.45;40.38;;;;;;;;;;4881433;29;20113;-84
2023/09/09 07:53:16;;;;;;;42.72;39.10;;;;;;;;;;4881390;29;20116;-84
2023/09/09 07:55:42;;;;;;;43.58;39.63;;;;;;;;;;4881670;29;20045;-85
2023/09/09 07:58:08;;;;;;;43.80;39.80;;;;;;;;;;4881672;29;20474;-85
2023/09/09 08:00:36;;;;;;;44.47;40.25;;;;;;;;;;4882595;29;20156;-85
2023/09/09 08:03:04;;;;;;;43.67;39.38;;;;;;;;;;4867013;29;20084;-85
2023/09/09 08:05:30;;;;;;;44.53;40.80;;;;;;;;;;4882532;29;20096;-85
2023/09/09 08:07:56;;;;;;;44.67;40.53;;;;;;;;;;4881724;29;20048;-85
2023/09/09 08:10:23;;;;;;;44.28;40.45;;;;;;;;;;4881525;29;20053;-84
2023/09/09 08:12:49;;;;;;;43.13;39.13;;;;;;;;;;4882245;29;20053;-84
2023/09/09 08:15:15;;;;;;;46.20;42.30;;;;;;;;;;4881127;29;20048;-84
2023/09/09 08:17:41;;;;;;;46.42;42.35;;;;;;;;;;4881499;29;20096;-84
2023/09/09 08:20:07;;;;;;;47.83;43.80;;;;;;;;;;4881036;29;20057;-84
2023/09/09 08:22:36;;;;;;;45.63;41.70;;;;;;;;;;4882797;29;20057;-85
2023/09/09 08:25:02;;;;;;;47.38;43.42;;;;;;;;;;4881490;29;20486;-85
2023/09/09 08:27:28;;;;;;;47.60;43.40;;;;;;;;;;4882659;29;20060;-84
2023/09/09 08:29:56;;;;;;;46.53;42.42;;;;;;;;;;4882350;29;20057;-84
2023/09/09 08:32:22;;;;;;;53.28;48.45;;;;;;;;;;4881578;29;20061;-84
2023/09/09 08:34:51;;;;;;;55.22;50.58;;;;;;;;;;4881238;29;20055;-84
2023/09/09 08:37:17;;;;;;;52.78;47.97;;;;;;;;;;4881274;29;20486;-84
2023/09/09 08:39:53;;;;;;;54.30;49.33;;;;;;;;;;5092096;27;20472;-83
2023/09/09 08:42:38;;;;;;;55.75;50.80;;;;;;;;;;5092720;28;20079;-83
2023/09/09 08:45:17;;;;;;;54.53;49.70;;;;;;;;;;5092050;28;20138;-84
2023/09/09 08:47:45;;;;;;;58.67;53.30;;;;;;;;;;5074451;28;20048;-83
2023/09/09 08:50:14;;;;;;;59.08;53.90;;;;;;;;;;5091311;28;20423;-82
2023/09/09 08:52:40;;;;;;;58.10;53.10;;;;;;;;;;5091653;28;20558;-84
2023/09/09 08:55:07;;;;;;;59.45;53.95;;;;;;;;;;5092127;28;20090;-84
2023/09/09 08:57:33;;;;;;;55.72;51.03;;;;;;;;;;5091019;28;20135;-84
2023/09/09 09:00:03;;;;;;;52.30;47.70;;;;;;;;;;5092511;28;20048;-83
2023/09/09 09:02:29;;;;;;;52.15;47.75;;;;;;;;;;5091930;28;20557;-83
2023/09/09 09:04:55;;;;;;;50.45;46.25;;;;;;;;;;5091261;28;20044;-84
2023/09/09 09:07:22;;;;;;;47.95;43.72;;;;;;;;;;5074480;28;20137;-84
2023/09/09 09:09:48;;;;;;;50.28;46.15;;;;;;;;;;5090683;28;20059;-84
2023/09/09 09:12:15;;;;;;;49.70;45.33;;;;;;;;;;5091505;28;20488;-82
2023/09/09 09:14:47;;;;;;;48.10;44.03;;;;;;;;;;5090825;28;20059;-84
2023/09/09 09:17:16;;;;;;;50.40;46.30;;;;;;;;;;5091067;28;20040;-84
2023/09/09 09:19:42;;;;;;;47.25;43.45;;;;;;;;;;5089794;28;20093;-86
2023/09/09 09:22:08;;;;;;;46.92;42.72;;;;;;;;;;5090796;28;20086;-86
2023/09/09 09:24:45;;;;;;;45.40;41.20;;;;;;;;;;5091880;28;20045;-86
2023/09/09 09:27:14;;;;;;;47.28;43.05;;;;;;;;;;5091740;28;20075;-86
2023/09/09 09:29:41;;;;;;;46.40;42.20;;;;;;;;;;5090507;28;20071;-83
2023/09/09 09:32:09;;;;;;;44.85;41.15;;;;;;;;;;5090168;28;20081;-84
2023/09/09 09:34:36;;;;;;;42.70;38.90;;;;;;;;;;5090480;28;20480;-84
2023/09/09 09:37:11;;;;;;;45.67;41.65;;;;;;;;;;5091811;28;20052;-86
2023/09/09 09:39:38;;;;;;;49.05;44.67;;;;;;;;;;5089439;28;20546;-86
2023/09/09 09:42:05;;;;;;;50.17;45.70;;;;;;;;;;5091363;28;20044;-86
2023/09/09 09:44:31;;;;;;;47.45;43.13;;;;;;;;;;5091794;28;20040;-87
2023/09/09 09:47:01;;;;;;;50.25;45.63;;;;;;;;;;5089899;28;20045;-84
2023/09/09 09:49:40;;;;;;;47.08;43.08;;;;;;;;;;5087183;28;20105;-84
2023/09/09 09:52:06;;;;;;;48.90;44.53;;;;;;;;;;5076028;28;20093;-85
2023/09/09 09:54:34;;;;;;;41.80;38.17;;;;;;;;;;5076349;28;20400;-85
2023/09/09 09:57:04;;;;;;;44.45;40.63;;;;;;;;;;5076585;28;20141;-85
2023/09/09 09:59:31;;;;;;;44.92;41.25;;;;;;;;;;5076825;28;20041;-84
2023/09/09 10:01:58;;;;;;;45.58;41.67;;;;;;;;;;5077428;28;20512;-85
2023/09/09 10:04:26;;;;;;;45.03;41.10;;;;;;;;;;5077498;28;20136;-85
2023/09/09 10:06:56;;;;;;;45.50;41.65;;;;;;;;;;5059443;28;20062;-87
2023/09/09 10:09:33;;;;;;;44.67;40.63;;;;;;;;;;5077534;28;20056;-85
2023/09/09 10:12:19;;;;;;;42.05;38.50;;;;;;;;;;5076191;28;20048;-84
2023/09/09 10:14:46;;;;;;;42.53;39.03;;;;;;;;;;5077262;28;20373;-85
2023/09/09 10:17:13;;;;;;;43.97;40.35;;;;;;;;;;5076088;28;20049;-85
2023/09/09 10:19:39;;;;;;;36.28;32.90;;;;;;;;;;5076616;28;20048;-85
2023/09/09 10:22:06;;;;;;;41.25;37.50;;;;;;;;;;5076519;28;20059;-85
2023/09/09 10:24:34;;;;;;;43.60;39.97;;;;;;;;;;5077056;28;20431;-86
2023/09/09 10:27:01;;;;;;;39.67;36.53;;;;;;;;;;5076807;28;20053;-86
2023/09/09 10:29:28;;;;;;;40.47;37.25;;;;;;;;;;5077245;28;20047;-86
2023/09/09 10:31:56;;;;;;;39.60;35.92;;;;;;;;;;5076984;28;20076;-86
2023/09/09 10:34:23;;;;;;;39.25;36.00;;;;;;;;;;5077042;28;20091;-87
2023/09/09 10:36:52;;;;;;;39.80;36.03;;;;;;;;;;5077134;28;20084;-87
2023/09/09 10:39:19;;;;;;;35.17;32.22;;;;;;;;;;5077002;28;20480;-87
2023/09/09 10:41:45;;;;;;;40.13;36.63;;;;;;;;;;5076959;28;20048;-87
2023/09/09 10:44:11;;;;;;;41.92;38.10;;;;;;;;;;5077197;28;20041;-86
2023/09/09 10:46:38;;;;;;;40.53;37.38;;;;;;;;;;5075873;28;20041;-86
2023/09/09 10:49:04;;;;;;;39.72;36.28;;;;;;;;;;5078664;28;20044;-84
2023/09/09 10:51:44;;;;;;;44.13;40.17;;;;;;;;;;5077241;28;20053;-87
2023/09/09 10:54:11;;;;;;;36.53;33.55;;;;;;;;;;5077805;28;20453;-87
2023/09/09 10:56:51;;;;;;;27.80;25.67;;;;;;;;;;5076162;28;20554;-87
2023/09/09 10:59:17;;;;;;;30.80;28.25;;;;;;;;;;5076219;28;20040;-86
2023/09/09 11:01:44;;;;;;;36.30;33.17;;;;;;;;;;5075132;28;20063;-86
2023/09/09 11:04:19;;;;;;;32.88;29.83;;;;;;;;;;5076881;28;20076;-86
2023/09/09 11:06:58;;;;;;;29.52;27.13;;;;;;;;;;5075635;28;20519;-86
2023/09/09 11:09:29;;;;;;;26.77;24.35;;;;;;;;;;5077086;28;20080;-85
2023/09/09 11:11:56;;;;;;;26.95;24.48;;;;;;;;;;5075717;28;20052;-86
2023/09/09 11:14:22;;;;;;;28.98;26.60;;;;;;;;;;5076100;28;20055;-86
2023/09/09 11:16:54;;;;;;;28.27;25.98;;;;;;;;;;5076344;28;20491;-86
2023/09/09 11:19:23;;;;;;;33.53;30.55;;;;;;;;;;5074925;28;20055;-86
2023/09/09 11:21:52;;;;;;;27.92;25.60;;;;;;;;;;5076539;28;20044;-86
2023/09/09 11:24:19;;;;;;;28.58;26.30;;;;;;;;;;5076026;28;20109;-86
2023/09/09 11:26:50;;;;;;;30.58;28.02;;;;;;;;;;5074043;28;20508;-85
2023/09/09 11:29:18;;;;;;;26.25;24.02;;;;;;;;;;5075976;28;20055;-86
2023/09/09 11:31:45;;;;;;;29.05;26.45;;;;;;;;;;5058598;28;20048;-86
2023/09/09 11:34:11;;;;;;;28.42;26.10;;;;;;;;;;5076487;28;20056;-85
2023/09/09 11:36:37;;;;;;;27.02;24.65;;;;;;;;;;5074687;28;20044;-86
2023/09/09 11:39:03;;;;;;;24.70;22.42;;;;;;;;;;5075658;28;20151;-86
2023/09/09 11:41:34;;;;;;;27.55;25.27;;;;;;;;;;5075646;28;20088;-86
2023/09/09 11:44:01;;;;;;;26.08;23.75;;;;;;;;;;5075792;28;20138;-86
2023/09/09 11:46:28;;;;;;;24.77;22.33;;;;;;;;;;5074277;28;20044;-86
2023/09/09 11:48:54;;;;;;;23.85;21.52;;;;;;;;;;5075807;28;20480;-86
2023/09/09 11:51:21;;;;;;;19.25;17.35;;;;;;;;;;5074326;28;20048;-87
2023/09/09 11:53:47;;;;;;;20.23;15.55;;;;;;;;;;5075366;28;20048;-85
2023/09/09 11:56:14;;;;;;;19.63;17.92;;;;;;;;;;5075598;28;20075;-85
2023/09/09 11:58:41;;;;;;;15.68;14.25;;;;;;;;;;5074413;28;20045;-87
2023/09/09 12:01:07;;;;;;;19.17;17.40;;;;;;;;;;5074619;28;20048;-87
2023/09/09 12:03:34;;;;;;;16.98;15.20;;;;;;;;;;5074283;28;20044;-87
2023/09/09 12:06:01;;;;;;;18.15;16.70;;;;;;;;;;5075638;28;20068;-87
2023/09/09 12:08:27;;;;;;;16.83;15.52;;;;;;;;;;5075814;28;20036;-86
2023/09/09 12:10:55;;;;;;;16.67;15.05;;;;;;;;;;5074978;28;20484;-87
2023/09/09 12:13:21;;;;;;;18.33;16.40;;;;;;;;;;5074528;28;20366;-86
2023/09/09 12:15:48;;;;;;;16.95;15.27;;;;;;;;;;5075329;28;20051;-84
2023/09/09 12:18:14;;;;;;;15.55;13.95;;;;;;;;;;5073338;28;20044;-85
2023/09/09 12:21:02;;;;;;;17.45;15.70;;;;;;;;;;5071404;28;20101;-84
2023/09/09 12:23:29;;;;;;;16.88;15.38;;;;;;;;;;5072821;28;20040;-86
2023/09/09 12:25:56;;;;;;;20.33;18.25;;;;;;;;;;5073057;28;20095;-86
2023/09/09 12:28:22;;;;;;;15.77;14.57;;;;;;;;;;5070331;28;20436;-86
2023/09/09 12:30:50;;;;;;;16.08;14.63;;;;;;;;;;5074065;28;20049;-87
2023/09/09 12:33:19;;;;;;;17.30;15.77;;;;;;;;;;5073307;28;20052;-86
2023/09/09 12:35:47;;;;;;;14.70;13.30;;;;;;;;;;5073715;28;20052;-85
2023/09/09 12:38:16;;;;;;;15.88;14.20;;;;;;;;;;5072611;28;20049;-87
2023/09/09 12:40:48;;;;;;;14.82;13.23;;;;;;;;;;5073707;28;20076;-87
2023/09/09 12:43:15;;;;;;;13.10;12.13;;;;;;;;;;5073960;28;20051;-87
2023/09/09 12:45:51;;;;;;;12.05;10.73;;;;;;;;;;5073925;28;20045;-86
2023/09/09 12:48:18;;;;;;;12.10;10.90;;;;;;;;;;5074132;28;20086;-86
2023/09/09 12:50:44;;;;;;;12.30;11.30;;;;;;;;;;5072486;28;20067;-86
2023/09/09 12:53:11;;;;;;;11.32;10.35;;;;;;;;;;5056369;28;20048;-85
2023/09/09 12:55:37;;;;;;;13.48;12.23;;;;;;;;;;5073874;28;20485;-87
2023/09/09 12:58:04;;;;;;;12.98;11.80;;;;;;;;;;5056198;28;20037;-86
2023/09/09 13:00:30;;;;;;;10.20;9.40;;;;;;;;;;5073031;28;20431;-87
2023/09/09 13:02:56;;;;;;;10.45;9.55;;;;;;;;;;5074100;28;20040;-86
2023/09/09 13:05:23;;;;;;;12.13;11.13;;;;;;;;;;5074134;28;20066;-87
2023/09/09 13:07:49;;;;;;;11.60;10.57;;;;;;;;;;5074001;28;20053;-86
2023/09/09 13:10:15;;;;;;;9.18;8.48;;;;;;;;;;5067125;28;20439;-86
2023/09/09 13:12:42;;;;;;;9.35;7.63;;;;;;;;;;5054337;28;20127;-87
2023/09/09 13:15:08;;;;;;;9.25;8.48;;;;;;;;;;5053573;28;20045;-87
2023/09/09 13:17:34;;;;;;;8.25;7.38;;;;;;;;;;5073152;28;20056;-87
2023/09/09 13:20:00;;;;;;;9.75;9.05;;;;;;;;;;5074191;28;20048;-87
2023/09/09 13:22:27;;;;;;;13.27;12.13;;;;;;;;;;5074290;28;20076;-87
2023/09/09 13:24:53;;;;;;;12.38;11.35;;;;;;;;;;5075668;28;20113;-86
2023/09/09 13:27:19;;;;;;;13.40;12.10;;;;;;;;;;5076915;28;20131;-87
2023/09/09 13:29:45;;;;;;;11.43;10.52;;;;;;;;;;5078430;28;20066;-87
2023/09/09 13:32:11;;;;;;;10.43;9.63;;;;;;;;;;5078130;28;20052;-86
2023/09/09 13:34:37;;;;;;;10.57;9.68;;;;;;;;;;5077565;28;20074;-87
2023/09/09 13:37:03;;;;;;;10.75;9.85;;;;;;;;;;5060894;28;20059;-86
2023/09/09 13:39:29;;;;;;;11.85;10.77;;;;;;;;;;5075917;28;20139;-87
2023/09/09 13:41:55;;;;;;;11.30;10.48;;;;;;;;;;5076426;28;20150;-86
2023/09/09 13:44:24;;;;;;;9.45;8.52;;;;;;;;;;5076801;28;20040;-86
2023/09/09 13:46:50;;;;;;;8.63;7.95;;;;;;;;;;5078163;28;20048;-86
2023/09/09 13:49:16;;;;;;;9.70;8.88;;;;;;;;;;5076717;28;20056;-85
2023/09/09 13:51:43;;;;;;;8.77;8.10;;;;;;;;;;5077896;28;20087;-87
2023/09/09 13:54:09;;;;;;;7.18;6.78;;;;;;;;;;5077560;28;20076;-86
2023/09/09 13:56:35;;;;;;;6.72;6.22;;;;;;;;;;5076134;28;20051;-86
2023/09/09 13:59:01;;;;;;;7.88;7.15;;;;;;;;;;5078343;28;20385;-87
2023/09/09 14:01:27;;;;;;;7.05;6.20;;;;;;;;;;5060325;28;20052;-86
2023/09/09 14:03:53;;;;;;;5.90;5.57;;;;;;;;;;5076996;28;20534;-86
2023/09/09 14:06:19;;;;;;;5.80;5.32;;;;;;;;;;5077917;28;20374;-88
2023/09/09 14:08:46;;;;;;;5.65;5.25;;;;;;;;;;5076864;28;20052;-86
2023/09/09 14:11:12;;;;;;;6.88;5.97;;;;;;;;;;5076711;28;20090;-87
2023/09/09 14:13:38;;;;;;;5.80;5.40;;;;;;;;;;5077848;28;20044;-87
2023/09/09 14:16:05;;;;;;;6.72;6.22;;;;;;;;;;5076934;28;20434;-86
2023/09/09 14:18:31;;;;;;;5.70;5.40;;;;;;;;;;5076821;28;20055;-87